createdAt,value
2022-11-01T00:00:30.022Z,10.70
2022-11-01T00:02:31.792Z,12.13
2022-11-01T00:04:33.406Z,11.50
2022-11-01T00:06:36.135Z,11.10
2022-11-01T00:08:37.839Z,11.23
2022-11-01T00:10:39.427Z,11.27
2022-11-01T00:12:41.463Z,10.70
2022-11-01T00:14:43.094Z,12.45
2022-11-01T00:16:44.735Z,11.80
2022-11-01T00:18:46.973Z,12.55
2022-11-01T00:20:48.648Z,12.32
2022-11-01T00:22:50.296Z,11.90
2022-11-01T00:24:54.789Z,10.38
2022-11-01T00:26:56.777Z,10.07
2022-11-01T00:28:58.385Z,9.50
2022-11-01T00:31:00.375Z,9.43
2022-11-01T00:33:01.975Z,9.18
2022-11-01T00:35:03.777Z,9.50
2022-11-01T00:37:05.333Z,9.18
2022-11-01T00:39:07.950Z,9.63
2022-11-01T00:41:09.558Z,9.93
2022-11-01T00:43:12.096Z,10.60
2022-11-01T00:45:13.941Z,11.45
2022-11-01T00:47:15.528Z,11.27
2022-11-01T00:49:17.498Z,12.02
2022-11-01T00:51:19.116Z,10.63
2022-11-01T00:53:21.005Z,11.40
2022-11-01T00:55:22.864Z,11.35
2022-11-01T00:57:24.527Z,11.48
2022-11-01T00:59:26.119Z,11.70
2022-11-01T01:01:27.845Z,12.02
2022-11-01T01:03:29.578Z,12.48
2022-11-01T01:05:31.922Z,12.18
2022-11-01T01:07:34.179Z,11.70
2022-11-01T01:09:35.970Z,11.60
2022-11-01T01:11:37.625Z,12.13
2022-11-01T01:13:39.333Z,11.77
2022-11-01T01:15:41.626Z,11.45
2022-11-01T01:17:43.232Z,14.63
2022-11-01T01:19:45.108Z,13.93
2022-11-01T01:21:46.764Z,15.00
2022-11-01T01:23:49.022Z,15.02
2022-11-01T01:25:50.646Z,16.02
2022-11-01T01:27:52.281Z,15.55
2022-11-01T01:29:53.865Z,15.50
2022-11-01T01:31:55.551Z,15.00
2022-11-01T01:34:00.212Z,15.15
2022-11-01T01:36:05.741Z,15.82
2022-11-01T01:38:07.846Z,15.35
2022-11-01T01:40:09.856Z,15.00
2022-11-01T01:42:15.666Z,14.20
2022-11-01T01:44:42.223Z,14.25
2022-11-01T01:46:43.845Z,14.27
2022-11-01T01:48:48.577Z,14.60
2022-11-01T01:51:15.537Z,14.98
2022-11-01T01:53:33.721Z,14.07
2022-11-01T01:55:57.247Z,12.82
2022-11-01T01:57:59.475Z,13.43
2022-11-01T02:00:01.507Z,13.65
2022-11-01T02:02:03.437Z,13.20
2022-11-01T02:04:08.763Z,13.57
2022-11-01T02:06:12.800Z,13.88
2022-11-01T02:08:14.778Z,13.88
2022-11-01T02:10:17.000Z,14.15
2022-11-01T02:12:19.042Z,14.13
2022-11-01T02:14:21.617Z,14.30
2022-11-01T02:16:50.545Z,13.20
2022-11-01T02:19:10.417Z,14.38
2022-11-01T02:21:30.553Z,15.88
2022-11-01T02:24:07.254Z,18.05
2022-11-01T02:26:21.311Z,18.00
2022-11-01T02:28:44.057Z,17.73
2022-11-01T02:31:03.955Z,18.40
2022-11-01T02:33:05.868Z,17.48
2022-11-01T02:35:25.647Z,17.65
2022-11-01T02:37:35.373Z,16.88
2022-11-01T02:39:41.174Z,16.95
2022-11-01T02:41:50.420Z,16.98
2022-11-01T02:44:07.966Z,11.50
2022-11-01T02:46:28.756Z,12.60
2022-11-01T02:48:30.353Z,11.48
2022-11-01T02:50:44.088Z,10.00
2022-11-01T02:52:46.274Z,10.75
2022-11-01T02:54:54.786Z,11.10
2022-11-01T02:56:59.150Z,11.65
2022-11-01T02:59:01.384Z,10.77
2022-11-01T03:01:03.024Z,11.20
2022-11-01T03:03:15.859Z,12.63
2022-11-01T03:05:25.500Z,13.07
2022-11-01T03:07:27.082Z,12.52
2022-11-01T03:09:28.753Z,13.85
2022-11-01T03:11:57.223Z,13.55
2022-11-01T03:14:23.416Z,13.05
2022-11-01T03:16:32.677Z,13.55
2022-11-01T03:18:36.755Z,13.32
2022-11-01T03:20:48.338Z,12.82
2022-11-01T03:22:56.791Z,10.73
2022-11-01T03:25:03.760Z,10.95
2022-11-01T03:27:10.551Z,11.90
2022-11-01T03:29:12.232Z,12.90
2022-11-01T03:31:16.834Z,13.00
2022-11-01T03:33:18.964Z,15.13
2022-11-01T03:35:26.835Z,14.35
2022-11-01T03:37:29.282Z,14.40
2022-11-01T03:39:43.983Z,15.15
2022-11-01T03:41:49.701Z,13.25
2022-11-01T03:43:52.087Z,13.60
2022-11-01T03:45:54.303Z,27.40
2022-11-01T03:47:56.933Z,18.10
2022-11-01T03:50:13.391Z,16.25
2022-11-01T03:52:15.007Z,12.55
2022-11-01T03:54:16.695Z,10.60
2022-11-01T03:56:18.263Z,10.95
2022-11-01T03:58:20.038Z,10.88
2022-11-01T04:00:31.400Z,10.95
2022-11-01T04:02:32.981Z,10.93
2022-11-01T04:04:34.573Z,12.30
2022-11-01T04:06:36.241Z,11.65
2022-11-01T04:08:38.465Z,9.75
2022-11-01T04:10:40.107Z,10.65
2022-11-01T04:12:45.302Z,9.90
2022-11-01T04:15:05.192Z,10.15
2022-11-01T04:17:27.336Z,9.20
2022-11-01T04:19:47.581Z,10.15
2022-11-01T04:21:49.138Z,10.15
2022-11-01T04:23:50.993Z,10.43
2022-11-01T04:25:52.560Z,10.48
2022-11-01T04:27:56.578Z,10.93
2022-11-01T04:29:58.301Z,11.18
2022-11-01T04:31:59.956Z,10.93
2022-11-01T04:34:02.526Z,11.80
2022-11-01T04:36:05.771Z,10.98
2022-11-01T04:38:07.531Z,11.18
2022-11-01T04:40:09.744Z,10.50
2022-11-01T04:42:11.379Z,11.15
2022-11-01T04:44:13.006Z,11.02
2022-11-01T04:46:14.792Z,11.30
2022-11-01T04:48:17.105Z,11.25
2022-11-01T04:50:20.274Z,12.32
2022-11-01T04:52:22.164Z,10.77
2022-11-01T04:54:23.907Z,11.50
2022-11-01T04:56:25.541Z,12.23
2022-11-01T04:58:27.136Z,11.50
2022-11-01T05:00:28.851Z,11.60
2022-11-01T05:02:31.255Z,11.73
2022-11-01T05:04:32.806Z,12.07
2022-11-01T05:06:35.619Z,11.48
2022-11-01T05:08:37.295Z,11.57
2022-11-01T05:10:41.151Z,11.93
2022-11-01T05:14:44.425Z,11.48
2022-11-01T05:16:46.041Z,12.02
2022-11-01T05:18:48.064Z,10.95
2022-11-01T05:20:49.752Z,10.52
2022-11-01T05:22:51.403Z,11.25
2022-11-01T05:24:53.654Z,11.55
2022-11-01T05:26:55.365Z,11.32
2022-11-01T05:28:56.939Z,10.38
2022-11-01T05:30:58.658Z,13.13
2022-11-01T05:33:01.498Z,16.23
2022-11-01T05:35:03.153Z,19.30
2022-11-01T05:37:04.954Z,13.45
2022-11-01T05:39:06.560Z,11.32
2022-11-01T05:41:08.224Z,11.07
2022-11-01T05:43:09.918Z,11.40
2022-11-01T05:45:11.632Z,11.65
2022-11-01T05:47:17.074Z,12.00
2022-11-01T05:49:19.190Z,12.50
2022-11-01T05:51:21.006Z,12.05
2022-11-01T05:53:22.548Z,12.07
2022-11-01T05:55:24.147Z,12.38
2022-11-01T05:57:30.920Z,12.35
2022-11-01T05:59:34.771Z,13.10
2022-11-01T06:01:36.421Z,13.85
2022-11-01T06:03:38.161Z,14.98
2022-11-01T06:05:39.868Z,15.63
2022-11-01T06:07:41.463Z,15.63
2022-11-01T06:09:43.075Z,16.63
2022-11-01T06:11:44.632Z,15.75
2022-11-01T06:13:46.167Z,14.95
2022-11-01T06:15:47.972Z,15.75
2022-11-01T06:17:56.347Z,14.57
2022-11-01T06:19:58.374Z,16.27
2022-11-01T06:22:00.017Z,14.50
2022-11-01T06:24:01.649Z,14.25
2022-11-01T06:26:04.353Z,14.30
2022-11-01T06:28:06.094Z,15.27
2022-11-01T06:30:08.515Z,15.32
2022-11-01T06:32:10.140Z,15.98
2022-11-01T06:34:11.742Z,15.32
2022-11-01T06:36:13.303Z,15.43
2022-11-01T06:38:14.865Z,15.07
2022-11-01T06:40:16.826Z,15.45
2022-11-01T06:42:18.488Z,14.48
2022-11-01T06:44:20.065Z,15.00
2022-11-01T06:46:21.661Z,14.45
2022-11-01T06:48:23.308Z,14.40
2022-11-01T06:50:25.364Z,14.82
2022-11-01T06:52:27.030Z,15.45
2022-11-01T06:54:28.717Z,13.40
2022-11-01T06:56:30.269Z,15.23
2022-11-01T06:58:31.942Z,15.25
2022-11-01T07:00:33.683Z,14.82
2022-11-01T07:02:35.986Z,15.10
2022-11-01T07:04:38.870Z,15.88
2022-11-01T07:06:40.555Z,15.68
2022-11-01T07:08:42.144Z,16.25
2022-11-01T07:10:44.149Z,16.23
2022-11-01T07:12:45.726Z,15.05
2022-11-01T07:14:47.351Z,16.70
2022-11-01T07:16:49.087Z,15.25
2022-11-01T07:18:51.660Z,16.08
2022-11-01T07:20:53.218Z,15.98
2022-11-01T07:23:07.147Z,15.65
2022-11-01T07:25:10.455Z,16.20
2022-11-01T07:27:14.321Z,16.92
2022-11-01T07:29:20.686Z,16.85
2022-11-01T07:31:22.539Z,17.35
2022-11-01T07:33:24.129Z,16.58
2022-11-01T07:35:26.501Z,16.73
2022-11-01T07:37:31.011Z,16.98
2022-11-01T07:39:32.627Z,15.85
2022-11-01T07:41:34.176Z,16.67
2022-11-01T07:43:36.996Z,17.27
2022-11-01T07:45:38.619Z,17.93
2022-11-01T07:47:40.240Z,18.40
2022-11-01T07:49:41.856Z,17.55
2022-11-01T07:51:43.433Z,18.30
2022-11-01T07:53:45.028Z,18.90
2022-11-01T07:55:46.859Z,18.75
2022-11-01T07:57:48.427Z,17.83
2022-11-01T07:59:50.003Z,18.65
2022-11-01T08:01:51.839Z,18.73
2022-11-01T08:03:53.503Z,18.88
2022-11-01T08:05:55.973Z,18.52
2022-11-01T08:07:57.825Z,17.70
2022-11-01T08:09:59.491Z,19.17
2022-11-01T08:12:01.973Z,19.35
2022-11-01T08:14:05.188Z,17.38
2022-11-01T08:16:07.837Z,18.05
2022-11-01T08:18:09.771Z,17.27
2022-11-01T08:20:11.760Z,17.95
2022-11-01T08:22:13.378Z,18.50
2022-11-01T08:24:15.118Z,16.92
2022-11-01T08:26:16.748Z,19.27
2022-11-01T08:28:20.219Z,18.20
2022-11-01T08:30:23.000Z,18.52
2022-11-01T08:32:24.698Z,19.65
2022-11-01T08:34:26.468Z,18.35
2022-11-01T08:36:28.115Z,17.98
2022-11-01T08:38:29.678Z,17.77
2022-11-01T08:40:32.648Z,17.65
2022-11-01T08:42:34.229Z,18.95
2022-11-01T08:44:35.814Z,18.85
2022-11-01T08:46:37.428Z,18.67
2022-11-01T08:48:39.172Z,18.60
2022-11-01T08:50:41.014Z,17.13
2022-11-01T08:52:43.013Z,17.85
2022-11-01T08:54:44.856Z,18.38
2022-11-01T08:56:46.478Z,16.42
2022-11-01T08:58:52.091Z,16.83
2022-11-01T09:00:53.843Z,17.35
2022-11-01T09:02:55.583Z,20.13
2022-11-01T09:04:57.143Z,16.08
2022-11-01T09:06:58.807Z,16.75
2022-11-01T09:09:01.081Z,16.27
2022-11-01T09:11:02.670Z,15.57
2022-11-01T09:13:04.850Z,15.30
2022-11-01T09:15:07.047Z,15.18
2022-11-01T09:17:08.840Z,15.57
2022-11-01T09:19:10.665Z,15.90
2022-11-01T09:21:12.271Z,14.82
2022-11-01T09:23:13.869Z,15.60
2022-11-01T09:25:15.565Z,14.95
2022-11-01T09:27:17.184Z,15.45
2022-11-01T09:29:19.029Z,17.10
2022-11-01T09:31:21.594Z,14.98
2022-11-01T09:33:24.367Z,14.68
2022-11-01T09:35:26.027Z,14.93
2022-11-01T09:37:27.810Z,15.73
2022-11-01T09:39:29.389Z,14.98
2022-11-01T09:41:47.484Z,14.27
2022-11-01T09:43:55.104Z,12.90
2022-11-01T09:45:59.275Z,13.32
2022-11-01T09:48:02.415Z,13.20
2022-11-01T09:50:05.778Z,12.43
2022-11-01T09:52:07.762Z,13.23
2022-11-01T09:54:10.481Z,12.52
2022-11-01T09:56:19.205Z,12.17
2022-11-01T09:58:48.736Z,12.75
2022-11-01T10:01:15.598Z,11.90
2022-11-01T10:03:33.788Z,12.65
2022-11-01T10:05:48.803Z,12.32
2022-11-01T10:08:09.868Z,13.13
2022-11-01T10:10:33.987Z,12.48
2022-11-01T10:12:44.282Z,13.43
2022-11-01T10:15:01.162Z,12.13
2022-11-01T10:17:14.683Z,13.90
2022-11-01T10:19:21.946Z,14.23
2022-11-01T10:21:27.208Z,13.65
2022-11-01T10:23:53.939Z,13.27
2022-11-01T10:28:21.130Z,14.18
2022-11-01T10:30:22.995Z,14.45
2022-11-01T10:32:58.149Z,13.95
2022-11-01T10:35:04.640Z,14.48
2022-11-01T10:37:24.094Z,14.13
2022-11-01T10:39:54.255Z,14.23
2022-11-01T10:41:58.640Z,14.15
2022-11-01T10:44:07.206Z,14.73
2022-11-01T10:46:18.018Z,13.77
2022-11-01T10:48:45.897Z,12.32
2022-11-01T10:50:47.816Z,13.90
2022-11-01T10:52:52.244Z,13.55
2022-11-01T10:54:56.183Z,12.70
2022-11-01T10:57:02.967Z,13.73
2022-11-01T10:59:08.369Z,13.48
2022-11-01T11:01:17.166Z,12.82
2022-11-01T11:03:22.769Z,13.15
2022-11-01T11:05:25.931Z,12.85
2022-11-01T11:07:31.297Z,13.32
2022-11-01T11:09:34.950Z,13.35
2022-11-01T11:11:44.301Z,13.02
2022-11-01T11:13:49.323Z,12.60
2022-11-01T11:16:00.512Z,12.00
2022-11-01T11:18:02.743Z,11.85
2022-11-01T11:20:07.356Z,12.25
2022-11-01T11:22:09.285Z,12.27
2022-11-01T11:24:19.736Z,12.77
2022-11-01T11:26:21.844Z,12.15
2022-11-01T11:28:31.463Z,12.43
2022-11-01T11:30:35.317Z,12.57
2022-11-01T11:32:38.953Z,11.88
2022-11-01T11:34:41.280Z,11.35
2022-11-01T11:36:44.480Z,11.50
2022-11-01T11:38:47.806Z,11.75
2022-11-01T11:40:49.526Z,12.13
2022-11-01T11:42:53.772Z,11.30
2022-11-01T11:45:09.504Z,13.18
2022-11-01T11:47:20.851Z,12.02
2022-11-01T11:49:26.802Z,12.52
2022-11-01T11:51:29.867Z,11.15
2022-11-01T11:53:33.472Z,11.30
2022-11-01T11:57:52.745Z,11.43
2022-11-01T12:00:05.329Z,11.13
2022-11-01T12:02:16.094Z,10.60
2022-11-01T12:04:19.087Z,10.02
2022-11-01T12:06:26.088Z,10.45
2022-11-01T12:08:48.596Z,10.90
2022-11-01T12:10:57.557Z,11.13
2022-11-01T12:12:59.550Z,9.85
2022-11-01T12:15:03.803Z,10.95
2022-11-01T12:17:22.864Z,10.05
2022-11-01T12:19:31.805Z,9.82
2022-11-01T12:21:43.147Z,9.80
2022-11-01T12:23:45.529Z,9.05
2022-11-01T12:25:47.348Z,9.68
2022-11-01T12:27:55.431Z,10.32
2022-11-01T12:30:05.150Z,9.85
2022-11-01T12:32:12.599Z,9.10
2022-11-01T12:34:28.201Z,9.43
2022-11-01T12:36:43.817Z,9.70
2022-11-01T12:38:51.608Z,9.10
2022-11-01T12:40:54.687Z,9.63
2022-11-01T12:43:03.112Z,9.48
2022-11-01T12:45:16.415Z,9.65
2022-11-01T12:47:25.126Z,9.55
2022-11-01T12:49:29.305Z,9.00
2022-11-01T12:51:38.354Z,9.57
2022-11-01T12:53:47.376Z,9.65
2022-11-01T12:55:48.978Z,8.70
2022-11-01T12:57:50.631Z,9.07
2022-11-01T12:59:52.347Z,9.73
2022-11-01T13:01:59.714Z,8.75
2022-11-01T13:04:04.425Z,8.68
2022-11-01T13:06:15.442Z,8.30
2022-11-01T13:08:26.564Z,8.38
2022-11-01T13:10:33.440Z,8.30
2022-11-01T13:12:41.074Z,8.38
2022-11-01T13:14:58.231Z,7.90
2022-11-01T13:17:09.262Z,6.70
2022-11-01T13:19:19.037Z,7.38
2022-11-01T13:21:38.941Z,7.63
2022-11-01T13:23:49.155Z,6.78
2022-11-01T13:26:05.990Z,6.60
2022-11-01T13:28:18.764Z,7.10
2022-11-01T13:30:21.139Z,6.82
2022-11-01T13:32:44.679Z,7.85
2022-11-01T13:35:07.232Z,7.07
2022-11-01T13:37:12.199Z,6.25
2022-11-01T13:39:37.724Z,6.07
2022-11-01T13:41:41.020Z,5.57
2022-11-01T13:43:55.090Z,5.15
2022-11-01T13:46:02.581Z,5.43
2022-11-01T13:48:32.040Z,5.30
2022-11-01T13:50:48.937Z,4.80
2022-11-01T13:53:00.559Z,6.05
2022-11-01T13:55:27.163Z,4.88
2022-11-01T13:57:29.138Z,5.40
2022-11-01T13:59:44.894Z,4.95
2022-11-01T14:01:47.020Z,5.68
2022-11-01T14:03:50.014Z,6.00
2022-11-01T14:06:06.958Z,6.30
2022-11-01T14:08:28.301Z,6.35
2022-11-01T14:10:30.528Z,6.53
2022-11-01T14:12:44.878Z,5.60
2022-11-01T14:14:50.931Z,6.25
2022-11-01T14:16:53.392Z,6.07
2022-11-01T14:19:04.078Z,6.90
2022-11-01T14:21:22.302Z,6.72
2022-11-01T14:23:29.912Z,6.80
2022-11-01T14:25:32.810Z,7.13
2022-11-01T14:27:40.626Z,7.68
2022-11-01T14:29:42.719Z,7.25
2022-11-01T14:31:46.002Z,7.97
2022-11-01T14:33:48.556Z,6.97
2022-11-01T14:35:56.295Z,7.00
2022-11-01T14:38:03.328Z,7.07
2022-11-01T14:40:27.003Z,6.10
2022-11-01T14:42:35.406Z,5.40
2022-11-01T14:44:39.931Z,6.63
2022-11-01T14:46:46.662Z,6.88
2022-11-01T14:49:29.891Z,6.95
2022-11-01T14:51:48.598Z,6.82
2022-11-01T14:53:55.182Z,6.13
2022-11-01T14:56:17.658Z,5.10
2022-11-01T14:58:22.315Z,4.75
2022-11-01T15:00:29.730Z,5.00
2022-11-01T15:02:31.841Z,5.00
2022-11-01T15:04:42.284Z,4.70
2022-11-01T15:06:44.153Z,5.10
2022-11-01T15:08:45.737Z,5.82
2022-11-01T15:10:47.715Z,6.28
2022-11-01T15:13:07.559Z,5.78
2022-11-01T15:15:19.695Z,6.47
2022-11-01T15:17:27.114Z,6.10
2022-11-01T15:19:32.972Z,6.47
2022-11-01T15:21:35.191Z,6.30
2022-11-01T15:23:38.143Z,5.43
2022-11-01T15:25:40.796Z,5.03
2022-11-01T15:27:44.378Z,5.03
2022-11-01T15:31:53.356Z,5.68
2022-11-01T15:34:02.451Z,5.45
2022-11-01T15:36:18.789Z,6.35
2022-11-01T15:38:21.226Z,9.50
2022-11-01T15:40:36.999Z,8.65
2022-11-01T15:42:38.848Z,8.45
2022-11-01T15:44:45.204Z,9.25
2022-11-01T15:46:48.906Z,8.10
2022-11-01T15:48:50.961Z,8.40
2022-11-01T15:50:57.832Z,8.40
2022-11-01T15:53:04.349Z,8.07
2022-11-01T15:55:25.128Z,7.78
2022-11-01T15:57:43.296Z,7.55
2022-11-01T15:59:53.757Z,7.93
2022-11-01T16:01:57.560Z,7.20
2022-11-01T16:04:03.277Z,9.07
2022-11-01T16:06:10.977Z,8.27
2022-11-01T16:08:22.870Z,7.95
2022-11-01T16:10:29.897Z,9.38
2022-11-01T16:12:34.472Z,9.43
2022-11-01T16:14:37.957Z,8.98
2022-11-01T16:16:59.579Z,10.02
2022-11-01T16:19:01.500Z,10.85
2022-11-01T16:21:30.044Z,10.65
2022-11-01T16:23:32.586Z,12.15
2022-11-01T16:25:37.596Z,11.77
2022-11-01T16:28:10.206Z,11.82
2022-11-01T16:30:34.499Z,10.77
2022-11-01T16:32:36.338Z,10.80
2022-11-01T16:34:37.897Z,10.18
2022-11-01T16:36:41.751Z,10.02
2022-11-01T16:38:44.363Z,11.15
2022-11-01T16:40:45.964Z,10.98
2022-11-01T16:42:48.727Z,10.77
2022-11-01T16:44:54.918Z,10.13
2022-11-01T16:46:56.600Z,10.63
2022-11-01T16:49:00.801Z,10.30
2022-11-01T16:51:03.763Z,10.60
2022-11-01T16:53:09.511Z,10.55
2022-11-01T16:55:17.112Z,10.05
2022-11-01T16:57:24.296Z,10.48
2022-11-01T16:59:35.686Z,9.60
2022-11-01T17:01:38.111Z,10.43
2022-11-01T17:03:41.117Z,12.35
2022-11-01T17:05:42.964Z,10.98
2022-11-01T17:07:45.188Z,12.20
2022-11-01T17:09:46.773Z,11.77
2022-11-01T17:11:51.696Z,13.68
2022-11-01T17:13:53.598Z,18.92
2022-11-01T17:15:55.223Z,18.92
2022-11-01T17:17:56.893Z,20.40
2022-11-01T17:20:00.951Z,22.17
2022-11-01T17:22:08.868Z,19.85
2022-11-01T17:24:10.767Z,19.90
2022-11-01T17:26:15.783Z,20.92
2022-11-01T17:28:21.649Z,19.00
2022-11-01T17:30:23.424Z,19.27
2022-11-01T17:32:24.993Z,22.85
2022-11-01T17:34:28.780Z,25.70
2022-11-01T17:36:30.835Z,31.83
2022-11-01T17:38:34.716Z,37.67
2022-11-01T17:40:36.697Z,32.58
2022-11-01T17:42:38.551Z,25.70
2022-11-01T17:44:40.174Z,20.42
2022-11-01T17:46:42.893Z,23.17
2022-11-01T17:48:44.605Z,22.20
2022-11-01T17:50:46.765Z,20.83
2022-11-01T17:52:48.601Z,22.85
2022-11-01T17:54:50.214Z,26.05
2022-11-01T17:56:51.782Z,22.92
2022-11-01T17:58:53.868Z,17.67
2022-11-01T18:00:55.753Z,14.40
2022-11-01T18:02:57.471Z,17.27
2022-11-01T18:04:59.087Z,15.82
2022-11-01T18:07:03.315Z,16.10
2022-11-01T18:09:15.792Z,25.88
2022-11-01T18:11:39.094Z,25.65
2022-11-01T18:13:49.393Z,23.92
2022-11-01T18:15:59.805Z,19.33
2022-11-01T18:18:24.777Z,16.10
2022-11-01T18:20:31.671Z,14.90
2022-11-01T18:22:55.984Z,18.25
2022-11-01T18:25:16.735Z,16.58
2022-11-01T18:27:33.413Z,19.83
2022-11-01T18:29:39.966Z,15.40
2022-11-01T18:31:46.226Z,15.55
2022-11-01T18:34:23.305Z,15.02
2022-11-01T18:36:27.447Z,14.40
2022-11-01T18:38:43.611Z,15.88
2022-11-01T18:40:51.191Z,12.77
2022-11-01T18:42:53.984Z,11.77
2022-11-01T18:44:57.983Z,15.70
2022-11-01T18:47:07.854Z,15.75
2022-11-01T18:49:11.130Z,13.93
2022-11-01T18:51:21.598Z,15.85
2022-11-01T18:53:24.234Z,15.32
2022-11-01T18:55:25.889Z,14.15
2022-11-01T18:57:29.121Z,14.82
2022-11-01T18:59:34.099Z,16.75
2022-11-01T19:01:37.697Z,16.63
2022-11-01T19:05:41.949Z,17.90
2022-11-01T19:08:09.699Z,19.02
2022-11-01T19:10:15.644Z,18.77
2022-11-01T19:12:29.627Z,17.13
2022-11-01T19:14:32.810Z,17.40
2022-11-01T19:16:34.535Z,15.43
2022-11-01T19:18:40.705Z,17.23
2022-11-01T19:20:50.056Z,15.70
2022-11-01T19:22:55.240Z,17.75
2022-11-01T19:24:56.823Z,17.85
2022-11-01T19:26:59.094Z,18.42
2022-11-01T19:29:00.970Z,19.33
2022-11-01T19:31:33.219Z,18.58
2022-11-01T19:33:37.751Z,16.60
2022-11-01T19:35:39.345Z,17.85
2022-11-01T19:37:42.263Z,20.92
2022-11-01T19:39:43.936Z,20.85
2022-11-01T19:41:45.670Z,22.60
2022-11-01T19:43:47.216Z,24.95
2022-11-01T19:45:56.640Z,25.05
2022-11-01T19:47:58.598Z,21.98
2022-11-01T19:50:00.367Z,25.77
2022-11-01T19:52:07.758Z,19.60
2022-11-01T19:54:11.520Z,20.40
2022-11-01T19:56:17.378Z,17.48
2022-11-01T19:58:22.747Z,23.63
2022-11-01T20:00:25.463Z,21.00
2022-11-01T20:02:27.180Z,22.08
2022-11-01T20:04:31.314Z,17.67
2022-11-01T20:06:37.345Z,15.82
2022-11-01T20:08:40.568Z,17.58
2022-11-01T20:10:42.195Z,18.52
2022-11-01T20:12:44.899Z,18.50
2022-11-01T20:14:46.681Z,20.57
2022-11-01T20:16:48.835Z,18.30
2022-11-01T20:18:50.414Z,16.10
2022-11-01T20:20:54.006Z,15.93
2022-11-01T20:23:20.213Z,15.27
2022-11-01T20:25:17.191Z,14.13
2022-11-01T20:27:18.941Z,15.10
2022-11-01T20:29:20.771Z,13.48
2022-11-01T20:31:22.396Z,15.80
2022-11-01T20:33:25.806Z,14.00
2022-11-01T20:35:27.377Z,14.10
2022-11-01T20:37:29.385Z,14.55
2022-11-01T20:39:31.044Z,18.63
2022-11-01T20:41:32.656Z,15.70
2022-11-01T20:43:34.404Z,18.50
2022-11-01T20:45:36.115Z,18.80
2022-11-01T20:47:40.392Z,16.80
2022-11-01T20:49:44.368Z,19.88
2022-11-01T20:51:46.115Z,20.02
2022-11-01T20:53:47.680Z,18.38
2022-11-01T20:55:49.372Z,16.63
2022-11-01T20:57:51.547Z,21.25
2022-11-01T20:59:53.133Z,23.17
2022-11-01T21:01:55.393Z,24.10
2022-11-01T21:03:57.576Z,22.83
2022-11-01T21:05:59.158Z,20.77
2022-11-01T21:08:11.178Z,22.27
2022-11-01T21:10:33.823Z,24.98
2022-11-01T21:12:44.629Z,25.52
2022-11-01T21:14:46.392Z,24.52
2022-11-01T21:16:48.261Z,23.67
2022-11-01T21:18:53.029Z,23.63
2022-11-01T21:20:54.719Z,24.63
2022-11-01T21:23:00.884Z,24.52
2022-11-01T21:25:02.860Z,26.92
2022-11-01T21:27:10.664Z,24.88
2022-11-01T21:29:28.373Z,25.35
2022-11-01T21:31:32.044Z,24.58
2022-11-01T21:33:36.568Z,24.33
2022-11-01T21:35:40.989Z,19.27
2022-11-01T21:37:42.743Z,18.80
2022-11-01T21:39:44.391Z,18.10
2022-11-01T21:41:57.931Z,16.45
2022-11-01T21:44:10.987Z,17.30
2022-11-01T21:46:21.008Z,15.55
2022-11-01T21:48:27.636Z,14.82
2022-11-01T21:50:29.329Z,14.57
2022-11-01T21:52:30.903Z,15.35
2022-11-01T21:54:34.262Z,16.73
2022-11-01T21:56:35.936Z,16.83
2022-11-01T21:58:37.537Z,15.73
2022-11-01T22:00:39.095Z,17.48
2022-11-01T22:02:40.789Z,15.85
2022-11-01T22:04:42.665Z,16.25
2022-11-01T22:06:44.733Z,15.38
2022-11-01T22:08:46.412Z,15.50
2022-11-01T22:10:48.011Z,16.48
2022-11-01T22:12:49.583Z,15.15
2022-11-01T22:14:51.252Z,16.50
2022-11-01T22:16:53.059Z,14.57
2022-11-01T22:18:54.604Z,14.00
2022-11-01T22:20:56.377Z,14.82
2022-11-01T22:22:57.990Z,17.02
2022-11-01T22:24:59.554Z,15.65
2022-11-01T22:27:02.252Z,16.30
2022-11-01T22:29:03.830Z,17.15
2022-11-01T22:31:06.159Z,16.20
2022-11-01T22:33:09.192Z,16.15
2022-11-01T22:35:10.754Z,15.00
2022-11-01T22:37:13.148Z,15.88
2022-11-01T22:39:21.308Z,17.98
2022-11-01T22:41:29.883Z,15.77
2022-11-01T22:43:35.024Z,19.85
2022-11-01T22:45:36.958Z,17.25
2022-11-01T22:47:39.434Z,19.73
2022-11-01T22:49:42.206Z,17.63
2022-11-01T22:51:46.235Z,15.07
2022-11-01T22:53:48.110Z,17.05
2022-11-01T22:55:51.670Z,19.13
2022-11-01T22:58:15.982Z,15.95
2022-11-01T23:00:44.031Z,16.13
2022-11-01T23:02:45.918Z,19.25
2022-11-01T23:04:48.018Z,17.80
2022-11-01T23:06:50.829Z,16.30
2022-11-01T23:08:53.638Z,13.63
2022-11-01T23:10:57.440Z,13.75
2022-11-01T23:13:29.824Z,13.68
2022-11-01T23:15:33.083Z,13.43
2022-11-01T23:17:36.757Z,12.05
2022-11-01T23:21:40.928Z,13.00
2022-11-01T23:23:47.186Z,12.48
2022-11-01T23:25:49.337Z,12.40
2022-11-01T23:27:50.955Z,13.18
2022-11-01T23:29:54.440Z,12.85
2022-11-01T23:31:56.095Z,14.43
2022-11-01T23:33:57.717Z,13.85
2022-11-01T23:36:00.983Z,14.70
2022-11-01T23:38:02.982Z,14.98
2022-11-01T23:40:13.120Z,15.52
2022-11-01T23:42:19.248Z,16.67
2022-11-01T23:44:28.068Z,15.57
2022-11-01T23:46:30.799Z,13.02
2022-11-01T23:48:32.683Z,14.50
2022-11-01T23:50:35.918Z,13.77
2022-11-01T23:52:46.310Z,12.85
2022-11-01T23:54:48.002Z,12.45
2022-11-01T23:56:49.716Z,11.82
2022-11-01T23:58:56.731Z,12.95
